createdAt,value
2023-04-20T00:04:37.711Z,6.45
2023-04-20T00:09:37.628Z,6.37
2023-04-20T00:14:37.548Z,6.35
2023-04-20T00:19:37.502Z,6.34
2023-04-20T00:24:37.413Z,6.29
2023-04-20T00:29:37.523Z,6.27
2023-04-20T00:34:37.271Z,6.29
2023-04-20T00:39:37.212Z,6.34
2023-04-20T00:44:37.145Z,6.29
2023-04-20T00:49:37.084Z,6.34
2023-04-20T00:54:37.011Z,6.34
2023-04-20T00:59:36.939Z,6.35
2023-04-20T01:04:37.087Z,6.32
2023-04-20T01:09:36.803Z,6.29
2023-04-20T01:14:36.814Z,6.30
2023-04-20T01:19:36.669Z,6.23
2023-04-20T01:24:36.605Z,6.23
2023-04-20T01:29:36.531Z,6.22
2023-04-20T01:34:36.462Z,6.27
2023-04-20T01:39:36.446Z,6.26
2023-04-20T01:44:36.322Z,6.30
2023-04-20T01:49:36.267Z,6.29
2023-04-20T01:54:36.188Z,6.30
2023-04-20T01:59:36.137Z,6.35
2023-04-20T02:04:36.054Z,6.41
2023-04-20T02:09:35.996Z,6.41
2023-04-20T02:14:35.936Z,6.43
2023-04-20T02:19:35.863Z,6.29
2023-04-20T02:24:35.806Z,6.29
2023-04-20T02:29:35.721Z,6.34
2023-04-20T02:34:35.652Z,6.30
2023-04-20T02:39:35.583Z,6.37
2023-04-20T02:44:35.517Z,6.40
2023-04-20T02:49:35.444Z,6.43
2023-04-20T02:54:35.372Z,6.38
2023-04-20T02:59:35.327Z,6.40
2023-04-20T03:04:35.404Z,6.32
2023-04-20T03:09:35.187Z,6.23
2023-04-20T03:14:35.121Z,6.16
2023-04-20T03:19:35.052Z,6.09
2023-04-20T03:24:34.964Z,6.04
2023-04-20T03:29:34.920Z,5.90
2023-04-20T03:34:34.826Z,5.89
2023-04-20T03:39:34.767Z,5.93
2023-04-20T03:44:34.690Z,6.02
2023-04-20T03:49:34.627Z,5.94
2023-04-20T03:54:34.564Z,5.93
2023-04-20T03:59:34.503Z,5.97
2023-04-20T04:04:34.539Z,6.05
2023-04-20T04:09:34.370Z,6.07
2023-04-20T04:14:34.288Z,6.08
2023-04-20T04:19:34.231Z,6.20
2023-04-20T04:24:34.155Z,6.29
2023-04-20T04:29:34.094Z,6.20
2023-04-20T04:34:34.020Z,6.16
2023-04-20T04:39:33.973Z,6.20
2023-04-20T04:44:33.883Z,6.30
2023-04-20T04:49:33.825Z,6.34
2023-04-20T04:54:33.761Z,6.20
2023-04-20T04:59:33.700Z,6.26
2023-04-20T05:04:33.787Z,6.35
2023-04-20T05:09:33.610Z,6.40
2023-04-20T05:14:33.485Z,6.43
2023-04-20T05:19:33.418Z,6.38
2023-04-20T05:24:33.340Z,6.44
2023-04-20T05:29:33.282Z,6.41
2023-04-20T05:34:33.207Z,6.48
2023-04-20T05:39:33.149Z,6.55
2023-04-20T05:44:33.070Z,6.43
2023-04-20T05:49:33.016Z,6.35
2023-04-20T05:54:32.950Z,6.45
2023-04-20T05:59:32.911Z,6.51
2023-04-20T06:04:33.056Z,6.74
2023-04-20T06:09:32.743Z,6.76
2023-04-20T06:14:32.668Z,6.61
2023-04-20T06:19:32.603Z,6.41
2023-04-20T06:24:32.529Z,6.38
2023-04-20T06:29:32.481Z,6.26
2023-04-20T06:34:32.415Z,6.27
2023-04-20T06:39:32.331Z,6.30
2023-04-20T06:44:32.251Z,6.26
2023-04-20T06:49:32.193Z,6.44
2023-04-20T06:54:32.117Z,6.41
2023-04-20T06:59:32.054Z,6.73
2023-04-20T07:04:32.005Z,6.81
2023-04-20T07:09:31.925Z,7.35
2023-04-20T07:14:31.848Z,7.78
2023-04-20T07:19:31.786Z,7.79
2023-04-20T07:24:31.718Z,7.75
2023-04-20T07:29:33.844Z,9.06
2023-04-20T07:34:31.575Z,10.49
2023-04-20T07:39:31.518Z,11.68
2023-04-20T07:44:31.462Z,10.40
2023-04-20T07:49:31.390Z,10.99
2023-04-20T07:54:31.313Z,12.24
2023-04-20T07:59:31.253Z,11.83
2023-04-20T08:04:31.436Z,11.11
2023-04-20T08:09:31.122Z,10.67
2023-04-20T08:14:31.044Z,10.89
2023-04-20T08:19:30.984Z,9.71
2023-04-20T08:24:30.920Z,10.80
2023-04-20T08:29:30.937Z,12.70
2023-04-20T08:34:30.774Z,12.23
2023-04-20T08:39:30.713Z,11.43
2023-04-20T08:44:30.639Z,10.80
2023-04-20T08:49:30.586Z,13.04
2023-04-20T08:54:30.512Z,12.73
2023-04-20T08:59:30.443Z,14.91
2023-04-20T09:04:30.492Z,13.88
2023-04-20T09:09:30.311Z,13.00
2023-04-20T09:14:30.234Z,14.43
2023-04-20T09:19:30.172Z,12.73
2023-04-20T09:24:30.102Z,11.47
2023-04-20T09:29:30.049Z,11.37
2023-04-20T09:34:29.966Z,11.43
2023-04-20T09:39:29.907Z,11.47
2023-04-20T09:44:29.830Z,10.66
2023-04-20T09:49:29.774Z,11.37
2023-04-20T09:54:29.697Z,11.70
2023-04-20T09:59:29.641Z,11.91
2023-04-20T10:04:29.664Z,11.40
2023-04-20T10:09:29.509Z,11.27
2023-04-20T10:14:29.429Z,11.16
2023-04-20T10:19:29.370Z,11.25
2023-04-20T10:24:29.294Z,11.33
2023-04-20T10:29:29.235Z,12.21
2023-04-20T10:34:29.170Z,11.63
2023-04-20T10:39:29.129Z,10.81
2023-04-20T10:44:29.026Z,10.96
2023-04-20T10:49:28.979Z,10.78
2023-04-20T10:54:28.955Z,11.01
2023-04-20T10:59:28.828Z,11.23
2023-04-20T11:04:28.846Z,11.14
2023-04-20T11:09:28.711Z,10.89
2023-04-20T11:14:28.636Z,10.83
2023-04-20T11:19:28.558Z,10.63
2023-04-20T11:24:28.503Z,10.46
2023-04-20T11:29:28.443Z,10.44
2023-04-20T11:34:28.370Z,10.80
2023-04-20T11:39:28.304Z,10.78
2023-04-20T11:44:28.244Z,10.80
2023-04-20T11:49:28.167Z,10.50
2023-04-20T11:54:28.113Z,10.22
2023-04-20T11:59:28.046Z,10.10
2023-04-20T12:04:28.391Z,9.97
2023-04-20T12:09:27.895Z,9.94
2023-04-20T12:14:27.831Z,9.76
2023-04-20T12:19:27.752Z,9.60
2023-04-20T12:24:27.696Z,9.68
2023-04-20T12:29:27.619Z,9.60
2023-04-20T12:34:27.562Z,9.92
2023-04-20T12:39:27.494Z,10.34
2023-04-20T12:44:27.433Z,10.26
2023-04-20T12:49:27.361Z,10.31
2023-04-20T12:54:27.301Z,10.33
2023-04-20T12:59:27.233Z,10.40
2023-04-20T13:04:27.237Z,10.37
2023-04-20T13:09:27.172Z,10.13
2023-04-20T13:14:27.033Z,10.48
2023-04-20T13:19:26.952Z,10.38
2023-04-20T13:24:26.897Z,9.95
2023-04-20T13:29:26.839Z,9.97
2023-04-20T13:34:26.770Z,10.22
2023-04-20T13:39:26.690Z,10.12
2023-04-20T13:44:26.634Z,10.13
2023-04-20T13:49:26.556Z,10.09
2023-04-20T13:54:26.525Z,9.72
2023-04-20T13:59:26.424Z,9.61
2023-04-20T14:04:26.409Z,9.53
2023-04-20T14:09:26.288Z,9.39
2023-04-20T14:14:26.236Z,9.38
2023-04-20T14:19:26.171Z,9.27
2023-04-20T14:24:26.102Z,9.15
2023-04-20T14:29:26.036Z,9.17
2023-04-20T14:34:25.975Z,9.03
2023-04-20T14:39:25.902Z,9.10
2023-04-20T14:44:25.856Z,9.12
2023-04-20T14:49:25.774Z,9.13
2023-04-20T14:54:25.715Z,9.31
2023-04-20T14:59:25.628Z,9.21
2023-04-20T15:04:26.059Z,9.42
2023-04-20T15:09:25.496Z,9.36
2023-04-20T15:14:25.536Z,9.30
2023-04-20T15:19:25.372Z,9.28
2023-04-20T15:24:25.306Z,9.42
2023-04-20T15:29:25.254Z,9.42
2023-04-20T15:34:25.172Z,9.53
2023-04-20T15:39:25.101Z,9.65
2023-04-20T15:44:25.044Z,9.72
2023-04-20T15:49:24.964Z,9.86
2023-04-20T15:54:24.903Z,9.87
2023-04-20T15:59:24.828Z,10.10
2023-04-20T16:04:25.055Z,10.20
2023-04-20T16:09:24.702Z,10.31
2023-04-20T16:14:24.642Z,10.38
2023-04-20T16:19:24.563Z,10.35
2023-04-20T16:24:24.517Z,10.31
2023-04-20T16:29:24.530Z,10.40
2023-04-20T16:34:24.379Z,10.40
2023-04-20T16:39:24.309Z,10.38
2023-04-20T16:44:24.244Z,10.46
2023-04-20T16:49:24.169Z,10.50
2023-04-20T16:54:24.115Z,10.49
2023-04-20T16:59:24.040Z,10.48
2023-04-20T17:04:24.169Z,10.48
2023-04-20T17:09:23.907Z,10.50
2023-04-20T17:14:23.860Z,10.55
2023-04-20T17:19:23.775Z,10.60
2023-04-20T17:24:23.812Z,10.60
2023-04-20T17:29:23.798Z,10.60
2023-04-20T17:34:23.732Z,10.60
2023-04-20T17:39:23.703Z,10.59
2023-04-20T17:44:23.446Z,10.58
2023-04-20T17:49:23.378Z,10.52
2023-04-20T17:54:23.316Z,10.49
2023-04-20T17:59:23.243Z,10.40
2023-04-20T18:04:23.658Z,10.34
2023-04-20T18:09:23.109Z,10.26
2023-04-20T18:14:23.066Z,10.53
2023-04-20T18:19:22.986Z,10.49
2023-04-20T18:24:22.925Z,10.30
2023-04-20T18:29:22.852Z,10.10
2023-04-20T18:34:22.787Z,10.01
2023-04-20T18:39:22.708Z,9.91
2023-04-20T18:44:22.899Z,9.87
2023-04-20T18:49:22.578Z,9.83
2023-04-20T18:54:22.521Z,9.79
2023-04-20T18:59:22.442Z,9.73
2023-04-20T19:04:22.704Z,9.68
2023-04-20T19:09:22.316Z,9.63
2023-04-20T19:14:22.252Z,9.57
2023-04-20T19:19:22.182Z,9.47
2023-04-20T19:24:22.163Z,9.40
2023-04-20T19:29:22.102Z,9.30
2023-04-20T19:34:22.149Z,9.27
2023-04-20T19:39:22.160Z,9.22
2023-04-20T19:44:22.203Z,9.22
2023-04-20T19:49:22.206Z,9.20
2023-04-20T19:54:22.171Z,9.17
2023-04-20T19:59:22.148Z,9.13
2023-04-20T20:04:21.776Z,9.10
2023-04-20T20:09:24.006Z,9.12
2023-04-20T20:14:21.457Z,9.07
2023-04-20T20:19:21.385Z,9.02
2023-04-20T20:24:21.326Z,8.95
2023-04-20T20:29:21.401Z,8.81
2023-04-20T20:34:21.190Z,8.76
2023-04-20T20:39:21.297Z,8.70
2023-04-20T20:44:21.084Z,8.67
2023-04-20T20:49:21.075Z,8.61
2023-04-20T20:54:20.927Z,8.56
2023-04-20T20:59:21.061Z,8.52
2023-04-20T21:04:20.819Z,8.48
2023-04-20T21:09:21.038Z,8.42
2023-04-20T21:14:20.674Z,8.25
2023-04-20T21:19:20.911Z,8.11
2023-04-20T21:24:20.540Z,7.96
2023-04-20T21:29:20.673Z,7.93
2023-04-20T21:34:20.406Z,8.08
2023-04-20T21:39:20.607Z,8.18
2023-04-20T21:44:20.259Z,8.25
2023-04-20T21:49:20.466Z,8.25
2023-04-20T21:54:20.126Z,8.32
2023-04-20T21:59:20.325Z,8.46
2023-04-20T22:04:20.242Z,8.60
2023-04-20T22:09:20.140Z,8.69
2023-04-20T22:14:19.866Z,8.76
2023-04-20T22:19:19.873Z,8.79
2023-04-20T22:24:19.737Z,8.82
2023-04-20T22:29:19.888Z,8.84
2023-04-20T22:34:19.600Z,8.88
2023-04-20T22:39:19.764Z,8.87
2023-04-20T22:44:19.463Z,8.88
2023-04-20T22:49:19.522Z,8.91
2023-04-20T22:54:19.328Z,8.95
2023-04-20T22:59:19.467Z,9.00
2023-04-20T23:04:19.232Z,9.04
2023-04-20T23:09:19.321Z,9.07
2023-04-20T23:14:19.057Z,9.18
2023-04-20T23:19:19.172Z,9.21
2023-04-20T23:24:18.925Z,9.25
2023-04-20T23:29:19.041Z,9.28
2023-04-20T23:34:18.803Z,9.28
2023-04-20T23:39:19.097Z,9.18
2023-04-20T23:44:18.659Z,9.10
2023-04-20T23:49:18.928Z,9.03
2023-04-20T23:54:18.527Z,9.02
2023-04-20T23:59:18.657Z,9.04
